sensor_id;sensor_type;location;lat;lon;timestamp;P1;durP1;ratioP1;P2;durP2;ratioP2
41755;SDS011;27435;48.480;9.258;2023-08-30T00:00:07;20.90;;;14.90;;
41755;SDS011;27435;48.480;9.258;2023-08-30T00:02:35;21.80;;;15.53;;
41755;SDS011;27435;48.480;9.258;2023-08-30T00:05:02;21.13;;;15.53;;
41755;SDS011;27435;48.480;9.258;2023-08-30T00:07:28;21.23;;;15.33;;
41755;SDS011;27435;48.480;9.258;2023-08-30T00:09:54;21.73;;;14.97;;
41755;SDS011;27435;48.480;9.258;2023-08-30T00:12:20;19.70;;;15.10;;
41755;SDS011;27435;48.480;9.258;2023-08-30T00:14:46;26.13;;;15.83;;
41755;SDS011;27435;48.480;9.258;2023-08-30T00:17:12;24.37;;;15.70;;
41755;SDS011;27435;48.480;9.258;2023-08-30T00:19:38;24.83;;;16.00;;
41755;SDS011;27435;48.480;9.258;2023-08-30T00:22:03;22.73;;;16.37;;
41755;SDS011;27435;48.480;9.258;2023-08-30T00:24:32;25.73;;;17.00;;
41755;SDS011;27435;48.480;9.258;2023-08-30T00:26:58;22.27;;;16.83;;
41755;SDS011;27435;48.480;9.258;2023-08-30T00:29:24;24.33;;;17.67;;
41755;SDS011;27435;48.480;9.258;2023-08-30T00:31:50;25.20;;;17.90;;
41755;SDS011;27435;48.480;9.258;2023-08-30T00:34:15;27.93;;;17.83;;
41755;SDS011;27435;48.480;9.258;2023-08-30T00:36:41;23.40;;;18.23;;
41755;SDS011;27435;48.480;9.258;2023-08-30T00:39:06;24.87;;;18.37;;
41755;SDS011;27435;48.480;9.258;2023-08-30T00:41:33;26.13;;;18.43;;
41755;SDS011;27435;48.480;9.258;2023-08-30T00:43:59;32.03;;;19.10;;
41755;SDS011;27435;48.480;9.258;2023-08-30T00:46:25;25.13;;;19.27;;
41755;SDS011;27435;48.480;9.258;2023-08-30T00:48:51;29.87;;;18.97;;
41755;SDS011;27435;48.480;9.258;2023-08-30T00:51:16;26.27;;;17.83;;
41755;SDS011;27435;48.480;9.258;2023-08-30T00:53:42;23.90;;;17.67;;
41755;SDS011;27435;48.480;9.258;2023-08-30T00:56:09;22.00;;;16.80;;
41755;SDS011;27435;48.480;9.258;2023-08-30T00:58:35;26.90;;;18.43;;
41755;SDS011;27435;48.480;9.258;2023-08-30T01:01:01;27.80;;;18.40;;
41755;SDS011;27435;48.480;9.258;2023-08-30T01:03:26;27.63;;;19.13;;
41755;SDS011;27435;48.480;9.258;2023-08-30T01:05:52;29.53;;;18.00;;
41755;SDS011;27435;48.480;9.258;2023-08-30T01:08:18;26.90;;;18.43;;
41755;SDS011;27435;48.480;9.258;2023-08-30T01:13:18;28.97;;;18.87;;
41755;SDS011;27435;48.480;9.258;2023-08-30T01:15:46;25.73;;;17.40;;
41755;SDS011;27435;48.480;9.258;2023-08-30T01:18:22;24.00;;;17.33;;
41755;SDS011;27435;48.480;9.258;2023-08-30T01:20:51;25.07;;;18.20;;
41755;SDS011;27435;48.480;9.258;2023-08-30T01:26:13;28.67;;;18.83;;
41755;SDS011;27435;48.480;9.258;2023-08-30T01:28:45;32.90;;;19.80;;
41755;SDS011;27435;48.480;9.258;2023-08-30T01:31:12;28.67;;;18.97;;
41755;SDS011;27435;48.480;9.258;2023-08-30T01:33:39;26.03;;;18.93;;
41755;SDS011;27435;48.480;9.258;2023-08-30T01:36:06;26.07;;;18.83;;
41755;SDS011;27435;48.480;9.258;2023-08-30T01:38:32;30.63;;;19.73;;
41755;SDS011;27435;48.480;9.258;2023-08-30T01:40:58;30.33;;;19.33;;
41755;SDS011;27435;48.480;9.258;2023-08-30T01:43:28;37.70;;;20.83;;
41755;SDS011;27435;48.480;9.258;2023-08-30T01:45:55;29.07;;;20.53;;
41755;SDS011;27435;48.480;9.258;2023-08-30T01:48:25;32.17;;;19.47;;
41755;SDS011;27435;48.480;9.258;2023-08-30T01:50:51;39.63;;;20.53;;
41755;SDS011;27435;48.480;9.258;2023-08-30T01:53:19;29.40;;;19.20;;
41755;SDS011;27435;48.480;9.258;2023-08-30T01:55:47;29.93;;;19.13;;
41755;SDS011;27435;48.480;9.258;2023-08-30T01:58:12;32.40;;;20.23;;
41755;SDS011;27435;48.480;9.258;2023-08-30T02:00:38;30.73;;;20.40;;
41755;SDS011;27435;48.480;9.258;2023-08-30T02:03:08;32.83;;;20.53;;
41755;SDS011;27435;48.480;9.258;2023-08-30T02:05:35;30.67;;;19.20;;
41755;SDS011;27435;48.480;9.258;2023-08-30T02:08:05;29.23;;;19.67;;
41755;SDS011;27435;48.480;9.258;2023-08-30T02:10:41;34.78;;;20.40;;
41755;SDS011;27435;48.480;9.258;2023-08-30T02:13:13;35.87;;;19.47;;
41755;SDS011;27435;48.480;9.258;2023-08-30T02:15:40;28.03;;;18.23;;
41755;SDS011;27435;48.480;9.258;2023-08-30T02:18:07;31.43;;;18.77;;
41755;SDS011;27435;48.480;9.258;2023-08-30T02:20:34;29.37;;;19.00;;
41755;SDS011;27435;48.480;9.258;2023-08-30T02:22:59;26.93;;;18.37;;
41755;SDS011;27435;48.480;9.258;2023-08-30T02:25:25;28.97;;;17.87;;
41755;SDS011;27435;48.480;9.258;2023-08-30T02:27:51;28.07;;;17.40;;
41755;SDS011;27435;48.480;9.258;2023-08-30T02:30:17;29.10;;;16.50;;
41755;SDS011;27435;48.480;9.258;2023-08-30T02:32:42;27.43;;;15.83;;
41755;SDS011;27435;48.480;9.258;2023-08-30T02:35:08;28.47;;;17.70;;
41755;SDS011;27435;48.480;9.258;2023-08-30T02:37:33;28.67;;;17.57;;
41755;SDS011;27435;48.480;9.258;2023-08-30T02:39:59;27.83;;;17.53;;
41755;SDS011;27435;48.480;9.258;2023-08-30T02:42:25;27.13;;;17.97;;
41755;SDS011;27435;48.480;9.258;2023-08-30T02:44:51;29.33;;;18.33;;
41755;SDS011;27435;48.480;9.258;2023-08-30T02:47:18;24.17;;;16.93;;
41755;SDS011;27435;48.480;9.258;2023-08-30T02:49:43;26.60;;;16.77;;
41755;SDS011;27435;48.480;9.258;2023-08-30T02:52:09;25.33;;;17.27;;
41755;SDS011;27435;48.480;9.258;2023-08-30T02:54:34;25.27;;;15.87;;
41755;SDS011;27435;48.480;9.258;2023-08-30T02:57:00;23.07;;;16.67;;
41755;SDS011;27435;48.480;9.258;2023-08-30T02:59:26;21.33;;;16.13;;
41755;SDS011;27435;48.480;9.258;2023-08-30T03:01:51;24.13;;;16.30;;
41755;SDS011;27435;48.480;9.258;2023-08-30T03:04:17;21.27;;;15.17;;
41755;SDS011;27435;48.480;9.258;2023-08-30T03:06:42;20.30;;;14.93;;
41755;SDS011;27435;48.480;9.258;2023-08-30T03:09:08;24.03;;;14.93;;
41755;SDS011;27435;48.480;9.258;2023-08-30T03:11:33;20.30;;;15.17;;
41755;SDS011;27435;48.480;9.258;2023-08-30T03:13:59;26.27;;;16.20;;
41755;SDS011;27435;48.480;9.258;2023-08-30T03:16:25;21.27;;;14.87;;
41755;SDS011;27435;48.480;9.258;2023-08-30T03:18:50;31.57;;;16.30;;
41755;SDS011;27435;48.480;9.258;2023-08-30T03:21:16;23.13;;;16.50;;
41755;SDS011;27435;48.480;9.258;2023-08-30T03:23:42;32.07;;;16.67;;
41755;SDS011;27435;48.480;9.258;2023-08-30T03:28:37;27.63;;;15.90;;
41755;SDS011;27435;48.480;9.258;2023-08-30T03:31:16;23.77;;;16.47;;
41755;SDS011;27435;48.480;9.258;2023-08-30T03:33:43;21.97;;;15.70;;
41755;SDS011;27435;48.480;9.258;2023-08-30T03:36:13;26.33;;;15.97;;
41755;SDS011;27435;48.480;9.258;2023-08-30T03:38:40;23.10;;;14.63;;
41755;SDS011;27435;48.480;9.258;2023-08-30T03:41:06;23.13;;;14.93;;
41755;SDS011;27435;48.480;9.258;2023-08-30T03:43:32;22.17;;;13.90;;
41755;SDS011;27435;48.480;9.258;2023-08-30T03:45:59;19.90;;;14.40;;
41755;SDS011;27435;48.480;9.258;2023-08-30T03:48:26;26.97;;;15.10;;
41755;SDS011;27435;48.480;9.258;2023-08-30T03:50:52;21.17;;;14.40;;
41755;SDS011;27435;48.480;9.258;2023-08-30T03:53:19;22.63;;;15.33;;
41755;SDS011;27435;48.480;9.258;2023-08-30T03:55:44;24.07;;;14.10;;
41755;SDS011;27435;48.480;9.258;2023-08-30T03:58:10;18.60;;;13.77;;
41755;SDS011;27435;48.480;9.258;2023-08-30T04:00:36;23.50;;;14.47;;
41755;SDS011;27435;48.480;9.258;2023-08-30T04:03:03;21.47;;;14.53;;
41755;SDS011;27435;48.480;9.258;2023-08-30T04:05:33;27.90;;;14.80;;
41755;SDS011;27435;48.480;9.258;2023-08-30T04:08:01;24.77;;;15.13;;
41755;SDS011;27435;48.480;9.258;2023-08-30T04:10:27;24.33;;;13.77;;
41755;SDS011;27435;48.480;9.258;2023-08-30T04:13:00;21.17;;;13.97;;
41755;SDS011;27435;48.480;9.258;2023-08-30T04:15:26;22.70;;;14.20;;
41755;SDS011;27435;48.480;9.258;2023-08-30T04:17:51;20.73;;;14.20;;
41755;SDS011;27435;48.480;9.258;2023-08-30T04:20:17;18.30;;;12.77;;
41755;SDS011;27435;48.480;9.258;2023-08-30T04:22:43;18.63;;;13.67;;
41755;SDS011;27435;48.480;9.258;2023-08-30T04:25:08;18.77;;;12.50;;
41755;SDS011;27435;48.480;9.258;2023-08-30T04:27:34;19.20;;;12.57;;
41755;SDS011;27435;48.480;9.258;2023-08-30T04:30:00;20.00;;;13.07;;
41755;SDS011;27435;48.480;9.258;2023-08-30T04:32:26;21.93;;;14.17;;
41755;SDS011;27435;48.480;9.258;2023-08-30T04:34:52;24.57;;;13.40;;
41755;SDS011;27435;48.480;9.258;2023-08-30T04:37:18;19.23;;;14.07;;
41755;SDS011;27435;48.480;9.258;2023-08-30T04:39:46;19.43;;;13.53;;
41755;SDS011;27435;48.480;9.258;2023-08-30T04:42:13;22.90;;;14.27;;
41755;SDS011;27435;48.480;9.258;2023-08-30T04:44:39;23.23;;;15.50;;
41755;SDS011;27435;48.480;9.258;2023-08-30T04:47:04;22.67;;;15.30;;
41755;SDS011;27435;48.480;9.258;2023-08-30T04:49:30;23.73;;;16.43;;
41755;SDS011;27435;48.480;9.258;2023-08-30T04:51:55;24.70;;;16.60;;
41755;SDS011;27435;48.480;9.258;2023-08-30T04:54:21;23.00;;;16.10;;
41755;SDS011;27435;48.480;9.258;2023-08-30T04:56:47;26.33;;;16.50;;
41755;SDS011;27435;48.480;9.258;2023-08-30T04:59:12;26.93;;;16.73;;
41755;SDS011;27435;48.480;9.258;2023-08-30T05:01:38;23.63;;;16.23;;
41755;SDS011;27435;48.480;9.258;2023-08-30T05:04:07;23.20;;;16.77;;
41755;SDS011;27435;48.480;9.258;2023-08-30T05:06:32;27.37;;;17.43;;
41755;SDS011;27435;48.480;9.258;2023-08-30T05:08:58;26.20;;;16.47;;
41755;SDS011;27435;48.480;9.258;2023-08-30T05:11:23;25.87;;;16.97;;
41755;SDS011;27435;48.480;9.258;2023-08-30T05:13:49;25.87;;;17.13;;
41755;SDS011;27435;48.480;9.258;2023-08-30T05:16:15;21.97;;;15.70;;
41755;SDS011;27435;48.480;9.258;2023-08-30T05:18:40;26.03;;;17.37;;
41755;SDS011;27435;48.480;9.258;2023-08-30T05:21:06;24.97;;;16.67;;
41755;SDS011;27435;48.480;9.258;2023-08-30T05:23:31;26.43;;;16.93;;
41755;SDS011;27435;48.480;9.258;2023-08-30T05:25:58;27.07;;;17.50;;
41755;SDS011;27435;48.480;9.258;2023-08-30T05:28:24;25.70;;;17.33;;
41755;SDS011;27435;48.480;9.258;2023-08-30T05:30:49;26.07;;;16.53;;
41755;SDS011;27435;48.480;9.258;2023-08-30T05:33:15;26.70;;;17.17;;
41755;SDS011;27435;48.480;9.258;2023-08-30T05:35:41;25.47;;;16.13;;
41755;SDS011;27435;48.480;9.258;2023-08-30T05:38:06;24.27;;;16.07;;
41755;SDS011;27435;48.480;9.258;2023-08-30T05:40:32;24.97;;;16.53;;
41755;SDS011;27435;48.480;9.258;2023-08-30T05:42:57;23.37;;;15.87;;
41755;SDS011;27435;48.480;9.258;2023-08-30T05:45:23;22.40;;;15.13;;
41755;SDS011;27435;48.480;9.258;2023-08-30T05:47:48;21.53;;;15.13;;
41755;SDS011;27435;48.480;9.258;2023-08-30T05:50:14;21.60;;;13.57;;
41755;SDS011;27435;48.480;9.258;2023-08-30T05:52:40;19.07;;;13.37;;
41755;SDS011;27435;48.480;9.258;2023-08-30T05:55:07;20.30;;;13.27;;
41755;SDS011;27435;48.480;9.258;2023-08-30T05:57:33;21.20;;;13.67;;
41755;SDS011;27435;48.480;9.258;2023-08-30T06:00:00;20.80;;;14.33;;
41755;SDS011;27435;48.480;9.258;2023-08-30T06:02:30;18.17;;;13.60;;
41755;SDS011;27435;48.480;9.258;2023-08-30T06:04:55;15.73;;;11.90;;
41755;SDS011;27435;48.480;9.258;2023-08-30T06:07:21;14.87;;;10.93;;
41755;SDS011;27435;48.480;9.258;2023-08-30T06:09:46;13.85;;;11.00;;
41755;SDS011;27435;48.480;9.258;2023-08-30T06:12:12;14.77;;;10.77;;
41755;SDS011;27435;48.480;9.258;2023-08-30T06:14:38;12.13;;;9.48;;
41755;SDS011;27435;48.480;9.258;2023-08-30T06:17:03;12.43;;;9.25;;
41755;SDS011;27435;48.480;9.258;2023-08-30T06:19:29;13.35;;;10.35;;
41755;SDS011;27435;48.480;9.258;2023-08-30T06:21:54;11.55;;;9.20;;
41755;SDS011;27435;48.480;9.258;2023-08-30T06:24:20;11.35;;;8.68;;
41755;SDS011;27435;48.480;9.258;2023-08-30T06:26:47;12.68;;;9.40;;
41755;SDS011;27435;48.480;9.258;2023-08-30T06:29:12;11.75;;;9.32;;
41755;SDS011;27435;48.480;9.258;2023-08-30T06:31:38;10.35;;;7.32;;
41755;SDS011;27435;48.480;9.258;2023-08-30T06:34:04;11.02;;;8.15;;
41755;SDS011;27435;48.480;9.258;2023-08-30T06:36:30;10.38;;;7.90;;
41755;SDS011;27435;48.480;9.258;2023-08-30T06:38:56;8.38;;;7.13;;
41755;SDS011;27435;48.480;9.258;2023-08-30T06:41:21;8.15;;;6.68;;
41755;SDS011;27435;48.480;9.258;2023-08-30T06:43:48;8.70;;;7.13;;
41755;SDS011;27435;48.480;9.258;2023-08-30T06:46:14;11.75;;;6.60;;
41755;SDS011;27435;48.480;9.258;2023-08-30T06:48:39;9.20;;;6.75;;
41755;SDS011;27435;48.480;9.258;2023-08-30T06:51:05;9.02;;;4.90;;
41755;SDS011;27435;48.480;9.258;2023-08-30T06:53:30;9.25;;;4.80;;
41755;SDS011;27435;48.480;9.258;2023-08-30T06:55:57;6.65;;;4.50;;
41755;SDS011;27435;48.480;9.258;2023-08-30T06:58:23;6.38;;;4.38;;
41755;SDS011;27435;48.480;9.258;2023-08-30T07:00:49;5.55;;;4.28;;
41755;SDS011;27435;48.480;9.258;2023-08-30T07:03:14;4.85;;;3.88;;
41755;SDS011;27435;48.480;9.258;2023-08-30T07:05:40;4.82;;;3.50;;
41755;SDS011;27435;48.480;9.258;2023-08-30T07:08:05;6.85;;;3.45;;
41755;SDS011;27435;48.480;9.258;2023-08-30T07:10:31;5.93;;;3.50;;
41755;SDS011;27435;48.480;9.258;2023-08-30T07:12:58;5.80;;;4.35;;
41755;SDS011;27435;48.480;9.258;2023-08-30T07:15:24;6.05;;;3.58;;
41755;SDS011;27435;48.480;9.258;2023-08-30T07:17:50;7.13;;;4.20;;
41755;SDS011;27435;48.480;9.258;2023-08-30T07:20:16;6.82;;;4.05;;
41755;SDS011;27435;48.480;9.258;2023-08-30T07:22:42;4.35;;;3.75;;
41755;SDS011;27435;48.480;9.258;2023-08-30T07:25:08;4.25;;;3.65;;
41755;SDS011;27435;48.480;9.258;2023-08-30T07:27:35;5.95;;;3.17;;
41755;SDS011;27435;48.480;9.258;2023-08-30T07:30:01;6.38;;;2.95;;
41755;SDS011;27435;48.480;9.258;2023-08-30T07:32:29;5.07;;;3.65;;
41755;SDS011;27435;48.480;9.258;2023-08-30T07:34:54;4.50;;;3.20;;
41755;SDS011;27435;48.480;9.258;2023-08-30T07:37:20;5.32;;;3.58;;
41755;SDS011;27435;48.480;9.258;2023-08-30T07:39:46;5.10;;;3.08;;
41755;SDS011;27435;48.480;9.258;2023-08-30T07:42:13;5.18;;;3.47;;
41755;SDS011;27435;48.480;9.258;2023-08-30T07:44:39;3.80;;;2.80;;
41755;SDS011;27435;48.480;9.258;2023-08-30T07:47:05;6.45;;;3.28;;
41755;SDS011;27435;48.480;9.258;2023-08-30T07:49:31;5.47;;;3.50;;
41755;SDS011;27435;48.480;9.258;2023-08-30T07:51:56;7.28;;;3.58;;
41755;SDS011;27435;48.480;9.258;2023-08-30T07:54:22;5.47;;;3.72;;
41755;SDS011;27435;48.480;9.258;2023-08-30T07:56:48;6.00;;;3.13;;
41755;SDS011;27435;48.480;9.258;2023-08-30T07:59:13;7.68;;;3.75;;
41755;SDS011;27435;48.480;9.258;2023-08-30T08:01:39;4.50;;;3.17;;
41755;SDS011;27435;48.480;9.258;2023-08-30T08:04:04;5.78;;;2.90;;
41755;SDS011;27435;48.480;9.258;2023-08-30T08:06:30;3.67;;;2.60;;
41755;SDS011;27435;48.480;9.258;2023-08-30T08:08:56;7.30;;;3.30;;
41755;SDS011;27435;48.480;9.258;2023-08-30T08:11:21;3.85;;;2.97;;
41755;SDS011;27435;48.480;9.258;2023-08-30T08:13:47;3.65;;;2.42;;
41755;SDS011;27435;48.480;9.258;2023-08-30T08:16:12;4.70;;;2.78;;
41755;SDS011;27435;48.480;9.258;2023-08-30T08:18:38;5.35;;;3.25;;
41755;SDS011;27435;48.480;9.258;2023-08-30T08:21:04;6.20;;;3.15;;
41755;SDS011;27435;48.480;9.258;2023-08-30T08:23:29;4.35;;;2.90;;
41755;SDS011;27435;48.480;9.258;2023-08-30T08:25:58;4.13;;;2.60;;
41755;SDS011;27435;48.480;9.258;2023-08-30T08:28:25;4.93;;;2.78;;
41755;SDS011;27435;48.480;9.258;2023-08-30T08:30:50;3.95;;;2.45;;
41755;SDS011;27435;48.480;9.258;2023-08-30T08:33:16;3.58;;;2.63;;
41755;SDS011;27435;48.480;9.258;2023-08-30T08:35:43;5.30;;;3.10;;
41755;SDS011;27435;48.480;9.258;2023-08-30T08:38:09;4.32;;;2.30;;
41755;SDS011;27435;48.480;9.258;2023-08-30T08:40:38;3.25;;;2.15;;
41755;SDS011;27435;48.480;9.258;2023-08-30T08:43:09;4.82;;;1.90;;
41755;SDS011;27435;48.480;9.258;2023-08-30T08:45:35;4.25;;;1.73;;
41755;SDS011;27435;48.480;9.258;2023-08-30T08:48:04;2.90;;;1.92;;
41755;SDS011;27435;48.480;9.258;2023-08-30T08:50:31;3.83;;;2.00;;
41755;SDS011;27435;48.480;9.258;2023-08-30T08:52:57;2.65;;;1.70;;
41755;SDS011;27435;48.480;9.258;2023-08-30T08:55:24;3.15;;;2.15;;
41755;SDS011;27435;48.480;9.258;2023-08-30T08:57:51;5.75;;;2.00;;
41755;SDS011;27435;48.480;9.258;2023-08-30T09:00:18;4.82;;;2.92;;
41755;SDS011;27435;48.480;9.258;2023-08-30T09:02:44;5.00;;;2.70;;
41755;SDS011;27435;48.480;9.258;2023-08-30T09:05:11;7.65;;;2.30;;
41755;SDS011;27435;48.480;9.258;2023-08-30T09:07:37;4.43;;;2.50;;
41755;SDS011;27435;48.480;9.258;2023-08-30T09:10:03;3.83;;;2.50;;
41755;SDS011;27435;48.480;9.258;2023-08-30T09:12:32;3.88;;;2.28;;
41755;SDS011;27435;48.480;9.258;2023-08-30T09:14:58;2.85;;;2.17;;
41755;SDS011;27435;48.480;9.258;2023-08-30T09:17:34;3.58;;;2.40;;
41755;SDS011;27435;48.480;9.258;2023-08-30T09:20:10;6.05;;;2.03;;
41755;SDS011;27435;48.480;9.258;2023-08-30T09:22:40;7.63;;;2.17;;
41755;SDS011;27435;48.480;9.258;2023-08-30T09:25:10;3.60;;;1.98;;
41755;SDS011;27435;48.480;9.258;2023-08-30T09:27:47;2.45;;;1.88;;
41755;SDS011;27435;48.480;9.258;2023-08-30T09:30:13;3.25;;;1.98;;
41755;SDS011;27435;48.480;9.258;2023-08-30T09:32:40;5.25;;;2.38;;
41755;SDS011;27435;48.480;9.258;2023-08-30T09:35:07;6.25;;;2.03;;
41755;SDS011;27435;48.480;9.258;2023-08-30T09:37:33;4.00;;;2.10;;
41755;SDS011;27435;48.480;9.258;2023-08-30T09:39:59;4.18;;;2.20;;
41755;SDS011;27435;48.480;9.258;2023-08-30T09:42:25;4.55;;;2.03;;
41755;SDS011;27435;48.480;9.258;2023-08-30T09:44:50;3.55;;;2.03;;
41755;SDS011;27435;48.480;9.258;2023-08-30T09:47:16;4.35;;;1.77;;
41755;SDS011;27435;48.480;9.258;2023-08-30T09:49:45;6.85;;;1.95;;
41755;SDS011;27435;48.480;9.258;2023-08-30T09:52:14;6.20;;;1.65;;
41755;SDS011;27435;48.480;9.258;2023-08-30T09:54:44;5.00;;;1.95;;
41755;SDS011;27435;48.480;9.258;2023-08-30T09:57:11;5.97;;;1.88;;
41755;SDS011;27435;48.480;9.258;2023-08-30T09:59:37;7.50;;;1.90;;
41755;SDS011;27435;48.480;9.258;2023-08-30T10:02:05;6.80;;;1.83;;
41755;SDS011;27435;48.480;9.258;2023-08-30T10:04:31;3.58;;;1.73;;
41755;SDS011;27435;48.480;9.258;2023-08-30T10:06:57;2.20;;;1.30;;
41755;SDS011;27435;48.480;9.258;2023-08-30T10:09:24;3.33;;;1.80;;
41755;SDS011;27435;48.480;9.258;2023-08-30T10:11:49;6.13;;;1.60;;
41755;SDS011;27435;48.480;9.258;2023-08-30T10:14:16;4.10;;;1.75;;
41755;SDS011;27435;48.480;9.258;2023-08-30T10:16:43;5.05;;;2.00;;
41755;SDS011;27435;48.480;9.258;2023-08-30T10:19:17;4.97;;;1.63;;
41755;SDS011;27435;48.480;9.258;2023-08-30T10:21:50;5.03;;;1.77;;
41755;SDS011;27435;48.480;9.258;2023-08-30T10:24:25;2.75;;;1.30;;
41755;SDS011;27435;48.480;9.258;2023-08-30T10:26:52;4.45;;;1.38;;
41755;SDS011;27435;48.480;9.258;2023-08-30T10:29:19;2.42;;;1.30;;
41755;SDS011;27435;48.480;9.258;2023-08-30T10:31:46;2.10;;;1.40;;
41755;SDS011;27435;48.480;9.258;2023-08-30T10:34:13;2.03;;;1.30;;
41755;SDS011;27435;48.480;9.258;2023-08-30T10:36:43;2.17;;;1.13;;
41755;SDS011;27435;48.480;9.258;2023-08-30T10:39:13;2.20;;;1.20;;
41755;SDS011;27435;48.480;9.258;2023-08-30T10:41:54;4.28;;;1.40;;
41755;SDS011;27435;48.480;9.258;2023-08-30T10:44:23;2.22;;;1.23;;
41755;SDS011;27435;48.480;9.258;2023-08-30T10:46:53;2.47;;;1.30;;
41755;SDS011;27435;48.480;9.258;2023-08-30T10:49:19;3.33;;;1.58;;
41755;SDS011;27435;48.480;9.258;2023-08-30T10:51:54;2.55;;;1.45;;
41755;SDS011;27435;48.480;9.258;2023-08-30T10:54:23;3.22;;;1.60;;
41755;SDS011;27435;48.480;9.258;2023-08-30T10:56:55;2.95;;;1.75;;
41755;SDS011;27435;48.480;9.258;2023-08-30T10:59:24;5.68;;;1.42;;
41755;SDS011;27435;48.480;9.258;2023-08-30T11:01:50;2.55;;;1.63;;
41755;SDS011;27435;48.480;9.258;2023-08-30T11:04:21;5.75;;;1.58;;
41755;SDS011;27435;48.480;9.258;2023-08-30T11:06:48;4.32;;;2.22;;
41755;SDS011;27435;48.480;9.258;2023-08-30T11:09:16;2.70;;;1.70;;
41755;SDS011;27435;48.480;9.258;2023-08-30T11:11:46;2.67;;;1.55;;
41755;SDS011;27435;48.480;9.258;2023-08-30T11:14:12;7.05;;;1.70;;
41755;SDS011;27435;48.480;9.258;2023-08-30T11:16:39;4.30;;;1.95;;
41755;SDS011;27435;48.480;9.258;2023-08-30T11:19:05;3.10;;;1.80;;
41755;SDS011;27435;48.480;9.258;2023-08-30T11:21:33;7.85;;;1.80;;
41755;SDS011;27435;48.480;9.258;2023-08-30T11:24:03;4.05;;;2.30;;
41755;SDS011;27435;48.480;9.258;2023-08-30T11:26:29;3.00;;;1.60;;
41755;SDS011;27435;48.480;9.258;2023-08-30T11:28:55;3.28;;;2.25;;
41755;SDS011;27435;48.480;9.258;2023-08-30T11:31:22;4.05;;;1.50;;
41755;SDS011;27435;48.480;9.258;2023-08-30T11:33:57;2.40;;;1.50;;
41755;SDS011;27435;48.480;9.258;2023-08-30T11:36:27;5.85;;;1.75;;
41755;SDS011;27435;48.480;9.258;2023-08-30T11:38:54;8.07;;;1.88;;
41755;SDS011;27435;48.480;9.258;2023-08-30T11:41:20;2.90;;;1.60;;
41755;SDS011;27435;48.480;9.258;2023-08-30T11:43:49;3.83;;;1.98;;
41755;SDS011;27435;48.480;9.258;2023-08-30T11:46:18;2.70;;;1.50;;
41755;SDS011;27435;48.480;9.258;2023-08-30T11:48:46;3.67;;;1.73;;
41755;SDS011;27435;48.480;9.258;2023-08-30T11:51:13;4.63;;;1.73;;
41755;SDS011;27435;48.480;9.258;2023-08-30T11:53:39;4.10;;;1.70;;
41755;SDS011;27435;48.480;9.258;2023-08-30T11:56:06;2.58;;;1.50;;
41755;SDS011;27435;48.480;9.258;2023-08-30T11:58:33;3.75;;;1.85;;
41755;SDS011;27435;48.480;9.258;2023-08-30T12:01:00;3.20;;;1.63;;
41755;SDS011;27435;48.480;9.258;2023-08-30T12:03:27;3.38;;;1.50;;
41755;SDS011;27435;48.480;9.258;2023-08-30T12:05:53;3.65;;;1.83;;
41755;SDS011;27435;48.480;9.258;2023-08-30T12:08:29;3.50;;;1.63;;
41755;SDS011;27435;48.480;9.258;2023-08-30T12:10:56;2.55;;;1.10;;
41755;SDS011;27435;48.480;9.258;2023-08-30T12:13:26;3.15;;;1.70;;
41755;SDS011;27435;48.480;9.258;2023-08-30T12:15:53;5.13;;;1.88;;
41755;SDS011;27435;48.480;9.258;2023-08-30T12:18:20;4.13;;;1.30;;
41755;SDS011;27435;48.480;9.258;2023-08-30T12:21:00;2.38;;;1.40;;
41755;SDS011;27435;48.480;9.258;2023-08-30T12:23:28;2.50;;;1.20;;
41755;SDS011;27435;48.480;9.258;2023-08-30T12:25:58;2.25;;;1.08;;
41755;SDS011;27435;48.480;9.258;2023-08-30T12:28:26;2.83;;;1.50;;
41755;SDS011;27435;48.480;9.258;2023-08-30T12:30:52;3.67;;;1.10;;
41755;SDS011;27435;48.480;9.258;2023-08-30T12:33:19;2.30;;;1.23;;
41755;SDS011;27435;48.480;9.258;2023-08-30T12:35:45;2.60;;;1.20;;
41755;SDS011;27435;48.480;9.258;2023-08-30T12:38:11;2.17;;;0.98;;
41755;SDS011;27435;48.480;9.258;2023-08-30T12:40:49;5.57;;;1.48;;
41755;SDS011;27435;48.480;9.258;2023-08-30T12:43:17;3.07;;;1.27;;
41755;SDS011;27435;48.480;9.258;2023-08-30T12:45:43;4.10;;;1.60;;
41755;SDS011;27435;48.480;9.258;2023-08-30T12:48:10;5.30;;;1.52;;
41755;SDS011;27435;48.480;9.258;2023-08-30T12:50:37;2.47;;;1.50;;
41755;SDS011;27435;48.480;9.258;2023-08-30T12:53:03;2.88;;;1.38;;
41755;SDS011;27435;48.480;9.258;2023-08-30T12:55:30;2.10;;;1.40;;
41755;SDS011;27435;48.480;9.258;2023-08-30T12:57:56;3.83;;;1.48;;
41755;SDS011;27435;48.480;9.258;2023-08-30T13:00:22;3.78;;;1.50;;
41755;SDS011;27435;48.480;9.258;2023-08-30T13:02:48;2.75;;;1.70;;
41755;SDS011;27435;48.480;9.258;2023-08-30T13:05:13;5.55;;;1.40;;
41755;SDS011;27435;48.480;9.258;2023-08-30T13:07:39;2.88;;;1.58;;
41755;SDS011;27435;48.480;9.258;2023-08-30T13:10:05;3.25;;;1.60;;
41755;SDS011;27435;48.480;9.258;2023-08-30T13:12:31;2.45;;;1.40;;
41755;SDS011;27435;48.480;9.258;2023-08-30T13:14:57;2.83;;;1.10;;
41755;SDS011;27435;48.480;9.258;2023-08-30T13:17:23;1.85;;;1.02;;
41755;SDS011;27435;48.480;9.258;2023-08-30T13:19:48;4.32;;;1.33;;
41755;SDS011;27435;48.480;9.258;2023-08-30T13:22:14;1.85;;;1.00;;
41755;SDS011;27435;48.480;9.258;2023-08-30T13:24:40;2.30;;;1.27;;
41755;SDS011;27435;48.480;9.258;2023-08-30T13:27:06;2.78;;;1.00;;
41755;SDS011;27435;48.480;9.258;2023-08-30T13:29:31;2.25;;;1.00;;
41755;SDS011;27435;48.480;9.258;2023-08-30T13:31:57;4.75;;;0.85;;
41755;SDS011;27435;48.480;9.258;2023-08-30T13:34:23;1.90;;;1.00;;
41755;SDS011;27435;48.480;9.258;2023-08-30T13:36:48;2.13;;;0.90;;
41755;SDS011;27435;48.480;9.258;2023-08-30T13:39:14;3.15;;;1.10;;
41755;SDS011;27435;48.480;9.258;2023-08-30T13:41:40;1.73;;;0.80;;
41755;SDS011;27435;48.480;9.258;2023-08-30T13:44:06;1.73;;;0.70;;
41755;SDS011;27435;48.480;9.258;2023-08-30T13:46:31;2.17;;;0.90;;
41755;SDS011;27435;48.480;9.258;2023-08-30T13:48:57;2.70;;;0.98;;
41755;SDS011;27435;48.480;9.258;2023-08-30T13:51:23;1.48;;;0.80;;
41755;SDS011;27435;48.480;9.258;2023-08-30T13:53:50;1.75;;;0.85;;
41755;SDS011;27435;48.480;9.258;2023-08-30T13:56:16;2.72;;;1.00;;
41755;SDS011;27435;48.480;9.258;2023-08-30T13:58:41;2.55;;;0.88;;
41755;SDS011;27435;48.480;9.258;2023-08-30T14:01:07;3.10;;;1.15;;
41755;SDS011;27435;48.480;9.258;2023-08-30T14:03:33;1.83;;;0.77;;
41755;SDS011;27435;48.480;9.258;2023-08-30T14:05:59;1.83;;;0.80;;
41755;SDS011;27435;48.480;9.258;2023-08-30T14:08:24;1.60;;;0.80;;
41755;SDS011;27435;48.480;9.258;2023-08-30T14:10:50;2.78;;;0.90;;
41755;SDS011;27435;48.480;9.258;2023-08-30T14:13:16;1.80;;;0.90;;
41755;SDS011;27435;48.480;9.258;2023-08-30T14:15:41;2.47;;;0.82;;
41755;SDS011;27435;48.480;9.258;2023-08-30T14:18:07;1.65;;;0.75;;
41755;SDS011;27435;48.480;9.258;2023-08-30T14:20:33;2.00;;;0.73;;
41755;SDS011;27435;48.480;9.258;2023-08-30T14:22:59;2.50;;;0.90;;
41755;SDS011;27435;48.480;9.258;2023-08-30T14:25:25;2.13;;;0.98;;
41755;SDS011;27435;48.480;9.258;2023-08-30T14:27:50;1.33;;;0.70;;
41755;SDS011;27435;48.480;9.258;2023-08-30T14:30:16;3.22;;;0.85;;
41755;SDS011;27435;48.480;9.258;2023-08-30T14:32:42;2.50;;;1.10;;
41755;SDS011;27435;48.480;9.258;2023-08-30T14:35:08;1.90;;;0.80;;
41755;SDS011;27435;48.480;9.258;2023-08-30T14:37:33;1.50;;;0.70;;
41755;SDS011;27435;48.480;9.258;2023-08-30T14:40:01;2.25;;;1.00;;